TimeCDT,TemperatureF,Dew PointF,Humidity,Sea Level PressureIn,VisibilityMPH,Wind Direction,Wind SpeedMPH,Gust SpeedMPH,PrecipitationIn,Events,Conditions,WindDirDegrees,DateUTC
7:15 AM,55.4,55.4,100,30.23,10.0,Calm,Calm,-,N/A,,Clear,0,2013-08-17 12:15:00
7:35 AM,59.0,57.2,94,30.23,10.0,Calm,Calm,-,N/A,,Clear,0,2013-08-17 12:35:00
7:55 AM,62.6,59.0,88,30.23,10.0,Calm,Calm,-,N/A,,Clear,0,2013-08-17 12:55:00
8:15 AM,64.4,60.8,88,30.23,10.0,Calm,Calm,-,N/A,,Clear,0,2013-08-17 13:15:00
8:35 AM,66.2,60.8,83,30.24,10.0,South,3.5,-,N/A,,Clear,190,2013-08-17 13:35:00
8:55 AM,66.2,62.6,88,30.24,10.0,Calm,Calm,-,N/A,,Clear,0,2013-08-17 13:55:00
9:15 AM,69.8,62.6,78,30.23,10.0,Calm,Calm,-,N/A,,Clear,0,2013-08-17 14:15:00
9:35 AM,71.6,60.8,69,30.24,10.0,Calm,Calm,-,N/A,,Clear,0,2013-08-17 14:35:00
9:55 AM,73.4,60.8,65,30.24,10.0,ESE,6.9,-,N/A,,Clear,110,2013-08-17 14:55:00
10:15 AM,75.2,60.8,61,30.24,10.0,East,5.8,-,N/A,,Clear,80,2013-08-17 15:15:00
10:35 AM,75.2,59.0,57,30.23,10.0,ESE,6.9,-,N/A,,Clear,110,2013-08-17 15:35:00
10:55 AM,75.2,60.8,61,30.23,10.0,ESE,8.1,-,N/A,,Clear,120,2013-08-17 15:55:00
11:15 AM,75.2,59.0,57,30.23,10.0,East,9.2,-,N/A,,Clear,80,2013-08-17 16:15:00
11:35 AM,77.0,59.0,54,30.23,10.0,ESE,8.1,-,N/A,,Clear,110,2013-08-17 16:35:00
11:55 AM,77.0,59.0,54,30.22,10.0,East,8.1,-,N/A,,Clear,100,2013-08-17 16:55:00
12:15 PM,77.0,57.2,50,30.22,10.0,East,10.4,-,N/A,,Scattered Clouds,80,2013-08-17 17:15:00
12:35 PM,77.0,57.2,50,30.22,10.0,East,6.9,-,N/A,,Scattered Clouds,80,2013-08-17 17:35:00
12:55 PM,78.8,57.2,47,30.21,10.0,East,6.9,-,N/A,,Scattered Clouds,90,2013-08-17 17:55:00
1:15 PM,78.8,57.2,47,30.21,10.0,East,6.9,-,N/A,,Scattered Clouds,100,2013-08-17 18:15:00
1:35 PM,78.8,57.2,47,30.20,10.0,East,9.2,-,N/A,,Scattered Clouds,80,2013-08-17 18:35:00
1:55 PM,78.8,57.2,47,30.20,10.0,ENE,8.1,-,N/A,,Scattered Clouds,70,2013-08-17 18:55:00
2:15 PM,78.8,57.2,47,30.19,10.0,East,6.9,-,N/A,,Scattered Clouds,100,2013-08-17 19:15:00
2:35 PM,78.8,57.2,47,30.19,10.0,East,8.1,-,N/A,,Scattered Clouds,80,2013-08-17 19:35:00
4:15 PM,78.8,57.2,47,30.17,10.0,East,6.9,16.1,N/A,,Scattered Clouds,90,2013-08-17 21:15:00
4:35 PM,78.8,57.2,47,30.17,10.0,ENE,6.9,-,N/A,,Scattered Clouds,60,2013-08-17 21:35:00
8:55 PM,62.6,57.2,82,30.17,10.0,East,5.8,-,N/A,,Clear,100,2013-08-18 01:55:00
9:15 PM,62.6,57.2,82,30.17,10.0,East,6.9,-,N/A,,Clear,90,2013-08-18 02:15:00
11:15 PM,59.0,55.4,88,30.17,10.0,East,5.8,-,N/A,,Clear,80,2013-08-18 04:15:00
11:35 PM,59.0,55.4,88,30.17,10.0,East,4.6,-,N/A,,Clear,80,2013-08-18 04:35:00
11:55 PM,57.2,55.4,94,30.17,10.0,ENE,4.6,-,N/A,,Clear,60,2013-08-18 04:55:00